Time;durP1;ratioP1;P1;durP2;ratioP2;P2;SDS_P1;SDS_P2;PMS_P1;PMS_P2;Temp;Humidity;BMP_temperature;BMP_pressure;BME280_temperature;BME280_humidity;BME280_pressure;Samples;Min_cycle;Max_cycle;Signal;HPM_P1;HPM_P2
2021/08/13 00:07:23;;;;;;;49.47;37.00;;;18.50;99.90;;;;;;4467589;28;20476;-84
2021/08/13 00:09:49;;;;;;;49.43;31.90;;;18.50;99.90;;;;;;5033424;28;20445;-85
2021/08/13 00:12:17;;;;;;;49.50;34.73;;;18.50;99.90;;;;;;5049707;28;20444;-85
2021/08/13 00:14:44;;;;;;;46.70;33.50;;;18.50;99.90;;;;;;5052400;28;20518;-85
2021/08/13 00:17:10;;;;;;;49.00;34.57;;;18.50;99.90;;;;;;5039243;28;20492;-85
2021/08/13 00:19:37;;;;;;;46.37;32.43;;;18.50;99.90;;;;;;5042647;28;20494;-85
2021/08/13 00:22:04;;;;;;;49.30;34.13;;;18.50;99.90;;;;;;5059379;28;20502;-85
2021/08/13 00:24:30;;;;;;;52.57;37.17;;;18.50;99.90;;;;;;5047200;28;20528;-84
2021/08/13 00:26:57;;;;;;;47.17;33.87;;;18.50;99.90;;;;;;5039232;28;20489;-85
2021/08/13 00:29:24;;;;;;;53.57;34.90;;;18.50;99.90;;;;;;5039884;28;20548;-85
2021/08/13 00:31:51;;;;;;;55.10;36.57;;;18.40;99.90;;;;;;5039164;28;20457;-86
2021/08/13 00:34:18;;;;;;;49.57;34.83;;;18.40;99.90;;;;;;5039450;28;20452;-85
2021/08/13 00:36:44;;;;;;;59.60;37.37;;;18.40;99.90;;;;;;5042390;28;20448;-85
2021/08/13 00:39:11;;;;;;;45.10;27.50;;;18.40;99.90;;;;;;5059728;28;20505;-85
2021/08/13 00:41:37;;;;;;;49.53;32.13;;;18.30;99.90;;;;;;5046336;28;20481;-85
2021/08/13 00:44:04;;;;;;;58.23;37.50;;;18.40;99.90;;;;;;5039757;28;20484;-86
2021/08/13 00:46:32;;;;;;;52.67;36.27;;;18.40;99.90;;;;;;5039373;28;20524;-85
2021/08/13 00:48:58;;;;;;;48.20;35.93;;;18.40;99.90;;;;;;5039398;28;20449;-85
2021/08/13 00:51:25;;;;;;;49.97;32.40;;;18.40;99.90;;;;;;5039367;28;20543;-86
2021/08/13 00:53:52;;;;;;;52.30;32.27;;;18.40;99.90;;;;;;5039193;28;20484;-85
2021/08/13 00:56:19;;;;;;;52.57;33.17;;;18.40;99.90;;;;;;5039168;28;20580;-85
2021/08/13 00:58:46;;;;;;;49.10;35.67;;;18.40;99.90;;;;;;5039376;28;20457;-85
2021/08/13 01:01:12;;;;;;;47.83;33.93;;;18.40;99.90;;;;;;5039593;28;20488;-85
2021/08/13 01:03:41;;;;;;;50.43;32.80;;;18.40;99.90;;;;;;5039106;28;20440;-85
2021/08/13 01:06:08;;;;;;;47.97;34.07;;;18.40;99.90;;;;;;5038926;28;20457;-86
2021/08/13 01:08:34;;;;;;;49.40;35.33;;;18.50;99.90;;;;;;5038806;28;20540;-85
2021/08/13 01:11:10;;;;;;;58.17;37.03;;;18.50;99.90;;;;;;5043962;28;20452;-85
2021/08/13 01:13:47;;;;;;;50.80;38.83;;;18.50;99.90;;;;;;5059776;28;20521;-85
2021/08/13 01:16:17;;;;;;;49.20;33.23;;;18.40;99.90;;;;;;5042317;28;20530;-85
2021/08/13 01:18:49;;;;;;;45.70;30.70;;;18.40;99.90;;;;;;5038875;28;20479;-84
2021/08/13 01:21:23;;;;;;;49.03;34.70;;;18.30;99.90;;;;;;5039041;28;20923;-86
2021/08/13 01:23:53;;;;;;;50.43;34.27;;;18.30;99.90;;;;;;5039207;28;20510;-84
2021/08/13 01:26:20;;;;;;;48.23;31.50;;;18.20;99.90;;;;;;5037118;28;20584;-85
2021/08/13 01:28:57;;;;;;;53.37;36.40;;;18.20;99.90;;;;;;5035935;28;20462;-86
2021/08/13 01:31:25;;;;;;;53.87;34.63;;;18.10;99.90;;;;;;5035798;28;20502;-86
2021/08/13 01:33:57;;;;;;;51.23;35.90;;;18.10;99.90;;;;;;5035769;28;20480;-86
2021/08/13 01:36:26;;;;;;;52.93;34.07;;;18.10;99.90;;;;;;5035887;28;20516;-85
2021/08/13 01:38:54;;;;;;;49.03;35.40;;;18.10;99.90;;;;;;5035555;28;20512;-85
2021/08/13 01:41:22;;;;;;;51.90;39.80;;;18.10;99.90;;;;;;5035684;28;20449;-85
2021/08/13 01:43:51;;;;;;;52.07;37.57;;;18.10;99.90;;;;;;5035339;28;20481;-85
2021/08/13 01:46:18;;;;;;;56.27;40.33;;;18.00;99.90;;;;;;5036350;28;20575;-85
2021/08/13 01:48:45;;;;;;;58.33;38.13;;;18.00;99.90;;;;;;5036363;28;20445;-85
2021/08/13 01:51:18;;;;;;;52.17;39.83;;;18.00;99.90;;;;;;5035605;28;20456;-84
2021/08/13 01:53:47;;;;;;;48.93;32.20;;;18.00;99.90;;;;;;5035477;28;20450;-84
2021/08/13 01:56:14;;;;;;;54.13;35.17;;;18.00;99.90;;;;;;5036031;28;20477;-84
2021/08/13 01:58:41;;;;;;;59.30;40.77;;;18.00;99.90;;;;;;5035305;28;20484;-84
2021/08/13 02:01:08;;;;;;;51.73;31.67;;;18.00;99.90;;;;;;5035427;28;20442;-84
2021/08/13 02:03:37;;;;;;;53.60;36.37;;;18.00;99.90;;;;;;5036163;28;20492;-85
2021/08/13 02:06:05;;;;;;;55.53;32.97;;;18.00;99.90;;;;;;5035780;28;20453;-84
2021/08/13 02:08:35;;;;;;;55.07;36.90;;;18.00;99.90;;;;;;5035897;28;20457;-85
2021/08/13 02:11:02;;;;;;;50.87;30.37;;;18.00;99.90;;;;;;5040333;28;20475;-85
2021/08/13 02:13:29;;;;;;;48.53;31.73;;;18.00;99.90;;;;;;5054835;28;20535;-84
2021/08/13 02:16:00;;;;;;;49.77;32.93;;;18.00;99.90;;;;;;5040413;28;20563;-84
2021/08/13 02:18:30;;;;;;;53.70;33.03;;;18.00;99.90;;;;;;5035477;28;20540;-85
2021/08/13 02:21:01;;;;;;;49.67;34.37;;;18.00;99.90;;;;;;5035040;28;20480;-84
2021/08/13 02:23:28;;;;;;;52.50;36.17;;;17.90;99.90;;;;;;5035526;28;20463;-85
2021/08/13 02:25:56;;;;;;;50.50;38.70;;;18.00;99.90;;;;;;5035357;28;20930;-85
2021/08/13 02:28:23;;;;;;;54.60;33.97;;;18.00;99.90;;;;;;5035361;28;20532;-84
2021/08/13 02:30:49;;;;;;;51.53;37.63;;;18.00;99.90;;;;;;5035357;28;20453;-85
2021/08/13 02:33:16;;;;;;;49.53;31.53;;;18.00;99.90;;;;;;5035553;28;20503;-84
2021/08/13 02:35:45;;;;;;;46.27;30.50;;;18.00;99.90;;;;;;5035167;28;21033;-84
2021/08/13 02:38:17;;;;;;;50.77;34.33;;;18.00;99.90;;;;;;5033919;28;20507;-84
2021/08/13 02:40:49;;;;;;;46.80;32.27;;;18.00;99.90;;;;;;5034595;28;20445;-84
2021/08/13 02:43:23;;;;;;;48.63;33.40;;;18.00;99.90;;;;;;5034682;28;20488;-83
2021/08/13 02:45:55;;;;;;;52.70;31.40;;;18.00;99.90;;;;;;5034437;28;20482;-84
2021/08/13 02:48:22;;;;;;;52.77;32.27;;;18.00;99.90;;;;;;5034145;28;20450;-84
2021/08/13 02:50:49;;;;;;;52.70;30.53;;;18.10;99.90;;;;;;5034041;28;20453;-86
2021/08/13 02:53:19;;;;;;;47.00;27.03;;;18.10;99.90;;;;;;5034142;28;20452;-85
2021/08/13 02:55:49;;;;;;;53.73;29.30;;;18.10;99.90;;;;;;5034221;28;20496;-86
2021/08/13 02:58:20;;;;;;;52.53;32.80;;;18.10;99.90;;;;;;5033999;28;20484;-86
2021/08/13 03:00:49;;;;;;;48.97;29.27;;;18.00;99.90;;;;;;5034088;28;20453;-86
2021/08/13 03:03:17;;;;;;;52.43;31.20;;;18.10;99.90;;;;;;5033780;28;20460;-86
2021/08/13 03:05:48;;;;;;;45.97;27.03;;;18.00;99.90;;;;;;5033947;28;20500;-85
2021/08/13 03:08:15;;;;;;;44.33;28.30;;;18.00;99.90;;;;;;5033873;28;20445;-85
2021/08/13 03:10:42;;;;;;;46.17;27.37;;;18.00;99.90;;;;;;5035660;28;20507;-85
2021/08/13 03:13:09;;;;;;;48.50;30.97;;;18.00;99.90;;;;;;5053591;28;20800;-85
2021/08/13 03:15:39;;;;;;;51.77;30.10;;;18.00;99.90;;;;;;5041602;28;20508;-85
2021/08/13 03:18:07;;;;;;;53.83;30.07;;;17.90;99.90;;;;;;5033828;28;20492;-84
2021/08/13 03:20:34;;;;;;;49.67;30.73;;;17.90;99.90;;;;;;5033686;28;20498;-85
2021/08/13 03:23:01;;;;;;;45.23;27.67;;;17.90;99.90;;;;;;5033495;28;20963;-85
2021/08/13 03:25:28;;;;;;;48.23;31.17;;;17.90;99.90;;;;;;5033476;28;20911;-85
2021/08/13 03:27:56;;;;;;;53.50;32.37;;;17.90;99.90;;;;;;5033752;28;20445;-85
2021/08/13 03:30:22;;;;;;;46.43;30.17;;;17.90;99.90;;;;;;5033260;28;20449;-85
2021/08/13 03:32:52;;;;;;;46.30;28.60;;;17.90;99.90;;;;;;5033544;28;20473;-86
2021/08/13 03:35:19;;;;;;;46.23;28.00;;;18.00;99.90;;;;;;5033442;28;20505;-85
2021/08/13 03:37:45;;;;;;;49.80;29.63;;;18.00;99.90;;;;;;5033685;28;20492;-85
2021/08/13 03:40:13;;;;;;;48.57;31.10;;;17.90;99.90;;;;;;5033354;28;20449;-85
2021/08/13 03:42:39;;;;;;;46.20;28.73;;;17.90;99.90;;;;;;5033341;28;20453;-85
2021/08/13 03:45:06;;;;;;;51.80;29.03;;;18.00;99.90;;;;;;5033160;28;21034;-85
2021/08/13 03:47:33;;;;;;;50.30;32.87;;;18.00;99.90;;;;;;5033445;28;20524;-84
2021/08/13 03:50:01;;;;;;;46.90;30.83;;;18.00;99.90;;;;;;5032869;28;20548;-84
2021/08/13 03:52:28;;;;;;;45.97;30.27;;;18.00;99.90;;;;;;5033095;28;21181;-84
2021/08/13 03:54:54;;;;;;;48.20;30.83;;;17.90;99.90;;;;;;5033206;28;20445;-85
2021/08/13 03:57:21;;;;;;;46.17;29.50;;;18.00;99.90;;;;;;5032836;28;21077;-85
2021/08/13 03:59:47;;;;;;;50.40;30.07;;;17.90;99.90;;;;;;5033076;28;20876;-85
2021/08/13 04:02:14;;;;;;;52.57;32.00;;;17.90;99.90;;;;;;5033022;28;20854;-84
2021/08/13 04:04:40;;;;;;;48.53;30.63;;;17.90;99.90;;;;;;5032828;28;20986;-84
2021/08/13 04:07:08;;;;;;;48.13;32.40;;;17.90;99.90;;;;;;5032665;28;20477;-86
2021/08/13 04:09:35;;;;;;;44.67;27.03;;;17.90;99.90;;;;;;5032805;28;20480;-86
2021/08/13 04:12:01;;;;;;;46.93;29.57;;;18.00;99.90;;;;;;5032712;28;20504;-84
2021/08/13 04:14:28;;;;;;;47.80;27.20;;;18.10;99.90;;;;;;5035158;28;20476;-85
2021/08/13 04:16:54;;;;;;;46.03;27.50;;;18.10;99.90;;;;;;5052681;28;20894;-84
2021/08/13 04:19:21;;;;;;;47.87;30.13;;;18.20;99.90;;;;;;5052702;28;20882;-84
2021/08/13 04:21:47;;;;;;;58.10;32.87;;;18.30;99.90;;;;;;5052843;28;20494;-84
2021/08/13 04:24:15;;;;;;;45.03;28.60;;;18.40;99.90;;;;;;5052562;28;20859;-85
2021/08/13 04:26:45;;;;;;;55.03;34.77;;;18.60;99.90;;;;;;5052563;28;20491;-85
2021/08/13 04:29:11;;;;;;;50.03;27.47;;;18.70;99.90;;;;;;5052797;28;20547;-84
2021/08/13 04:31:38;;;;;;;48.77;29.60;;;18.70;99.90;;;;;;5052938;28;20534;-84
2021/08/13 04:34:04;;;;;;;53.00;33.50;;;18.90;99.90;;;;;;5052967;28;20460;-84
2021/08/13 04:36:31;;;;;;;46.93;35.50;;;18.90;99.90;;;;;;5052586;28;20511;-83
2021/08/13 04:38:58;;;;;;;54.90;30.70;;;19.00;99.90;;;;;;5052606;28;20480;-84
2021/08/13 04:41:26;;;;;;;50.53;33.20;;;19.10;99.90;;;;;;5052498;28;20973;-84
2021/08/13 04:43:53;;;;;;;50.63;33.60;;;19.10;99.90;;;;;;5052750;28;20448;-83
2021/08/13 04:46:19;;;;;;;48.30;38.63;;;19.20;99.90;;;;;;5052624;28;20444;-83
2021/08/13 04:48:46;;;;;;;48.23;36.60;;;19.20;99.90;;;;;;5052660;28;20448;-84
2021/08/13 04:51:12;;;;;;;51.53;38.17;;;19.30;99.90;;;;;;5052419;28;20958;-83
2021/08/13 04:53:39;;;;;;;48.33;33.90;;;19.30;99.90;;;;;;5052437;28;20945;-84
2021/08/13 04:56:06;;;;;;;48.80;39.00;;;19.40;99.90;;;;;;5052422;28;20476;-84
2021/08/13 04:58:34;;;;;;;52.00;40.87;;;19.40;99.90;;;;;;5052570;28;20453;-84
2021/08/13 05:01:00;;;;;;;48.33;35.17;;;19.40;99.90;;;;;;5052333;28;20966;-84
2021/08/13 05:03:27;;;;;;;59.17;37.10;;;19.50;99.90;;;;;;5055951;28;20448;-85
2021/08/13 05:05:54;;;;;;;59.13;41.40;;;19.50;99.90;;;;;;5055536;28;20957;-85
2021/08/13 05:08:20;;;;;;;48.47;36.83;;;19.50;99.90;;;;;;5056495;28;20444;-85
2021/08/13 05:10:47;;;;;;;52.33;39.87;;;19.60;99.90;;;;;;5056879;28;20898;-84
2021/08/13 05:13:14;;;;;;;55.07;38.10;;;19.60;99.90;;;;;;5056421;28;20444;-84
2021/08/13 05:15:41;;;;;;;51.27;36.20;;;19.70;99.90;;;;;;5044306;28;20476;-84
2021/08/13 05:18:08;;;;;;;52.27;41.43;;;19.80;99.90;;;;;;5036350;28;20923;-84
2021/08/13 05:20:35;;;;;;;61.03;43.10;;;19.90;99.90;;;;;;5036060;28;20487;-84
2021/08/13 05:23:01;;;;;;;63.03;47.80;;;20.00;99.90;;;;;;5042198;28;20476;-84
2021/08/13 05:25:28;;;;;;;64.90;51.50;;;20.00;99.90;;;;;;5045467;28;20480;-84
2021/08/13 05:27:54;;;;;;;55.73;49.63;;;20.00;99.90;;;;;;5053719;28;20491;-84
2021/08/13 05:30:21;;;;;;;52.40;43.07;;;20.00;99.90;;;;;;5050488;28;20483;-84
2021/08/13 05:33:11;;;;;;;56.40;50.50;;;20.00;99.90;;;;;;5048516;28;20444;-85
2021/08/13 05:35:38;;;;;;;57.83;50.43;;;20.00;99.90;;;;;;5052517;28;21010;-84
2021/08/13 05:38:06;;;;;;;65.90;48.13;;;20.10;99.90;;;;;;5055149;28;20451;-85
2021/08/13 05:40:38;;;;;;;62.53;48.40;;;20.10;99.90;;;;;;5055107;28;20814;-84
2021/08/13 05:43:05;;;;;;;62.80;56.00;;;20.20;99.90;;;;;;5054921;28;20437;-86
2021/08/13 05:45:34;;;;;;;57.77;51.57;;;20.20;99.90;;;;;;5054502;28;20882;-86
2021/08/13 05:48:06;;;;;;;57.17;45.33;;;20.20;99.90;;;;;;5054977;28;20448;-86
2021/08/13 05:50:35;;;;;;;56.47;49.50;;;20.20;99.90;;;;;;5054884;28;20486;-85
2021/08/13 05:53:02;;;;;;;60.73;50.87;;;20.20;99.90;;;;;;5055075;28;20523;-86
2021/08/13 05:55:28;;;;;;;65.30;52.73;;;20.10;99.90;;;;;;5053592;28;20524;-86
2021/08/13 05:57:55;;;;;;;58.97;50.77;;;20.10;99.90;;;;;;5045220;28;20959;-85
2021/08/13 06:00:25;;;;;;;68.73;53.30;;;20.00;99.90;;;;;;5043258;28;20449;-86
2021/08/13 06:02:56;;;;;;;64.50;45.70;;;19.90;99.90;;;;;;5039511;28;20982;-85
2021/08/13 06:05:24;;;;;;;57.23;48.40;;;19.90;99.90;;;;;;5035354;28;20450;-84
2021/08/13 06:07:51;;;;;;;55.73;45.97;;;19.90;99.90;;;;;;5034737;28;20532;-84
2021/08/13 06:10:18;;;;;;;58.77;41.33;;;19.90;99.90;;;;;;5035475;28;20461;-85
2021/08/13 06:12:45;;;;;;;62.47;51.00;;;20.10;99.90;;;;;;5053480;28;20838;-85
2021/08/13 06:15:12;;;;;;;64.23;43.20;;;20.60;99.90;;;;;;5046539;28;20453;-87
2021/08/13 06:17:41;;;;;;;72.30;51.43;;;21.10;99.90;;;;;;5035668;28;20513;-87
2021/08/13 06:20:09;;;;;;;75.07;67.23;;;21.70;99.90;;;;;;5035261;28;20449;-87
2021/08/13 06:22:37;;;;;;;86.23;76.07;;;22.10;99.90;;;;;;5035463;28;20488;-88
2021/08/13 06:25:04;;;;;;;98.00;88.90;;;22.60;99.90;;;;;;5034859;28;20449;-88
2021/08/13 06:27:31;;;;;;;71.97;65.30;;;22.90;99.90;;;;;;5035289;28;20476;-88
2021/08/13 06:29:58;;;;;;;58.60;53.00;;;23.30;99.90;;;;;;5035076;28;20453;-88
2021/08/13 06:32:25;;;;;;;78.17;71.03;;;23.60;99.90;;;;;;5034994;28;20449;-88
2021/08/13 06:34:52;;;;;;;96.60;88.40;;;23.90;99.90;;;;;;5035082;28;20931;-86
2021/08/13 06:37:19;;;;;;;186.03;174.07;;;24.20;99.90;;;;;;5035881;28;20534;-87
2021/08/13 06:39:49;;;;;;;187.83;175.87;;;24.50;99.90;;;;;;5044873;28;20966;-87
2021/08/13 06:42:15;;;;;;;526.23;491.30;;;24.80;99.90;;;;;;5040329;28;20449;-84
2021/08/13 06:44:45;;;;;;;541.17;508.43;;;25.10;99.90;;;;;;5042658;28;20986;-85
2021/08/13 06:47:12;;;;;;;729.73;679.67;;;25.30;99.90;;;;;;5041113;28;20474;-85
2021/08/13 06:49:38;;;;;;;755.43;703.63;;;25.50;99.90;;;;;;5034076;28;20485;-85
2021/08/13 06:52:07;;;;;;;891.10;822.07;;;25.80;99.90;;;;;;5034461;28;20955;-90
2021/08/13 06:54:34;;;;;;;1056.37;951.50;;;26.00;99.90;;;;;;5035114;28;20511;-83
2021/08/13 06:57:02;;;;;;;1044.53;927.83;;;26.20;99.90;;;;;;5034153;28;20532;-83
2021/08/13 06:59:29;;;;;;;1064.87;948.20;;;26.30;99.90;;;;;;5036661;28;20572;-81
2021/08/13 07:01:55;;;;;;;1015.60;911.60;;;26.50;99.90;;;;;;5034587;28;20485;-81
2021/08/13 07:04:22;;;;;;;1275.23;981.77;;;26.60;99.90;;;;;;5033674;28;20484;-81
2021/08/13 07:06:48;;;;;;;1364.90;999.90;;;26.70;99.90;;;;;;5034191;28;20528;-81
2021/08/13 07:09:15;;;;;;;1814.67;999.90;;;26.90;99.90;;;;;;5033778;28;20477;-81
2021/08/13 07:11:41;;;;;;;1792.37;999.90;;;27.00;99.90;;;;;;5034147;28;20476;-81
2021/08/13 07:14:09;;;;;;;1999.90;999.90;;;27.10;99.90;;;;;;5034080;28;20637;-81
2021/08/13 07:20:07;;;;;;;1999.90;902.97;;;27.50;99.90;;;;;;5042566;28;20447;-82
2021/08/13 07:22:34;;;;;;;1999.90;835.47;;;27.60;99.90;;;;;;5053491;28;20479;-82
2021/08/13 07:25:01;;;;;;;1999.90;842.87;;;27.60;99.90;;;;;;5053251;28;20460;-82
2021/08/13 07:27:28;;;;;;;1999.90;805.23;;;27.70;99.90;;;;;;5053549;28;20486;-82
2021/08/13 07:29:56;;;;;;;1999.90;837.50;;;27.70;99.90;;;;;;5053363;28;20444;-81
2021/08/13 07:32:23;;;;;;;1999.90;684.37;;;27.70;99.90;;;;;;5053512;28;20448;-81
2021/08/13 07:34:49;;;;;;;1999.90;751.60;;;27.70;99.90;;;;;;5053308;28;20951;-81
2021/08/13 07:37:16;;;;;;;1999.90;749.50;;;27.70;99.90;;;;;;5053218;28;20516;-81
2021/08/13 07:39:42;;;;;;;1999.90;668.53;;;27.70;99.90;;;;;;5053157;28;20502;-81
2021/08/13 07:42:10;;;;;;;1999.90;375.93;;;27.80;99.90;;;;;;5053282;28;20862;-81
2021/08/13 07:44:36;;;;;;;1999.90;528.30;;;27.80;99.90;;;;;;5053134;28;20508;-81
2021/08/13 07:47:04;;;;;;;1999.90;637.80;;;27.90;99.90;;;;;;5053183;28;20460;-81
2021/08/13 07:49:31;;;;;;;1999.90;910.97;;;27.90;99.90;;;;;;5053230;28;20866;-81
2021/08/13 07:51:57;;;;;;;1999.90;999.90;;;28.00;99.90;;;;;;5052921;28;20541;-81
2021/08/13 07:54:24;;;;;;;1999.90;751.63;;;28.10;99.90;;;;;;5053125;28;20854;-81
2021/08/13 07:56:50;;;;;;;1262.37;389.30;;;28.20;99.90;;;;;;5052710;28;20994;-81
2021/08/13 07:59:19;;;;;;;1999.90;999.90;;;28.20;99.90;;;;;;5053389;28;20480;-83
2021/08/13 08:01:46;;;;;;;1999.90;778.93;;;28.30;99.90;;;;;;5054192;28;20510;-83
2021/08/13 08:04:13;;;;;;;1999.90;682.70;;;28.30;99.90;;;;;;5053459;28;20448;-82
2021/08/13 08:06:40;;;;;;;1999.90;568.27;;;28.30;99.90;;;;;;5052615;28;20508;-82
2021/08/13 08:09:07;;;;;;;1999.90;599.67;;;28.30;99.90;;;;;;5053015;28;20476;-82
2021/08/13 08:11:33;;;;;;;1999.90;775.07;;;28.30;99.90;;;;;;5052882;28;20475;-83
2021/08/13 08:14:00;;;;;;;1999.90;498.00;;;28.20;99.90;;;;;;5054014;28;20994;-83
2021/08/13 08:16:26;;;;;;;1999.90;999.90;;;28.20;99.90;;;;;;5035154;28;20469;-83
2021/08/13 08:18:53;;;;;;;1999.90;999.90;;;28.20;99.90;;;;;;5033177;28;20544;-83
2021/08/13 08:21:21;;;;;;;1999.90;841.33;;;28.10;99.90;;;;;;5032934;28;20511;-83
2021/08/13 08:23:48;;;;;;;1999.90;462.03;;;28.10;99.90;;;;;;5033279;28;20456;-83
2021/08/13 08:26:14;;;;;;;1999.90;842.07;;;28.00;99.90;;;;;;5033470;28;20470;-83
2021/08/13 08:28:45;;;;;;;1999.90;872.97;;;28.00;99.90;;;;;;5033271;28;20526;-83
2021/08/13 08:31:12;;;;;;;1999.90;869.47;;;27.90;99.90;;;;;;5033400;28;20503;-83
2021/08/13 08:33:38;;;;;;;1999.90;999.90;;;27.80;99.90;;;;;;5033005;28;20485;-83
2021/08/13 08:36:05;;;;;;;1999.90;998.13;;;27.70;99.90;;;;;;5034979;28;20452;-83
2021/08/13 08:38:33;;;;;;;1999.90;984.20;;;27.60;99.90;;;;;;5036964;28;20678;-83
2021/08/13 08:41:03;;;;;;;1999.90;944.00;;;27.60;99.90;;;;;;5037071;28;20511;-83
2021/08/13 08:43:30;;;;;;;1999.90;852.93;;;27.60;99.90;;;;;;5036848;28;20527;-83
2021/08/13 08:45:58;;;;;;;1999.90;806.37;;;27.50;99.90;;;;;;5036991;28;20449;-83
2021/08/13 08:48:27;;;;;;;1999.90;993.07;;;27.50;99.90;;;;;;5036503;28;20449;-83
2021/08/13 08:50:54;;;;;;;1999.90;850.57;;;27.40;99.90;;;;;;5036409;28;20920;-83
2021/08/13 08:53:23;;;;;;;1999.90;960.67;;;27.40;99.90;;;;;;5036483;28;20453;-83
2021/08/13 08:55:51;;;;;;;1999.90;999.90;;;27.40;99.90;;;;;;5036533;28;20457;-83
2021/08/13 08:58:19;;;;;;;1999.90;995.73;;;27.40;99.90;;;;;;5036553;28;20524;-83
2021/08/13 09:00:46;;;;;;;1999.90;991.27;;;27.40;99.90;;;;;;5036504;28;20549;-83
2021/08/13 09:03:15;;;;;;;1999.90;982.77;;;27.40;99.90;;;;;;5036189;28;20484;-83
2021/08/13 09:05:41;;;;;;;1999.90;987.70;;;27.40;99.90;;;;;;5036116;28;20449;-83
2021/08/13 09:08:08;;;;;;;1999.90;999.90;;;27.50;99.90;;;;;;5036162;28;20501;-83
2021/08/13 09:10:35;;;;;;;1999.90;900.87;;;27.50;99.90;;;;;;5036700;28;20966;-83
2021/08/13 09:13:05;;;;;;;1999.90;712.90;;;27.50;99.90;;;;;;5036552;28;20480;-83
2021/08/13 09:15:34;;;;;;;1999.90;832.60;;;27.60;99.90;;;;;;5047886;28;20440;-83
2021/08/13 09:18:12;;;;;;;1999.90;496.40;;;27.60;99.90;;;;;;5056499;28;20511;-83
2021/08/13 09:20:39;;;;;;;1999.90;785.83;;;27.60;99.90;;;;;;5056619;28;20450;-82
2021/08/13 09:23:06;;;;;;;1454.87;690.60;;;27.60;99.90;;;;;;5056216;28;20483;-83
2021/08/13 09:25:33;;;;;;;1999.90;999.90;;;27.50;99.90;;;;;;5056658;28;20539;-83
2021/08/13 09:27:59;;;;;;;1999.90;999.90;;;27.50;99.90;;;;;;5055849;28;20519;-83
2021/08/13 09:30:29;;;;;;;1999.90;999.90;;;27.50;99.90;;;;;;5055923;28;20502;-83
2021/08/13 09:32:57;;;;;;;1893.43;719.27;;;27.50;99.90;;;;;;5056142;28;20543;-82
2021/08/13 09:35:36;;;;;;;1999.90;999.90;;;27.50;99.90;;;;;;5056327;28;20535;-83
2021/08/13 09:38:09;;;;;;;1999.90;999.90;;;27.60;99.90;;;;;;5055578;28;20525;-83
2021/08/13 09:40:40;;;;;;;1999.90;999.90;;;27.60;99.90;;;;;;5055712;28;20455;-83
2021/08/13 09:43:07;;;;;;;1999.90;999.90;;;27.70;99.90;;;;;;5056011;28;20491;-83
2021/08/13 09:45:35;;;;;;;1999.90;999.90;;;27.80;99.90;;;;;;5055906;28;20853;-83
2021/08/13 09:48:02;;;;;;;1999.90;999.90;;;27.90;99.90;;;;;;5054767;28;20456;-83
2021/08/13 09:50:41;;;;;;;1999.90;999.90;;;27.90;99.90;;;;;;5055614;28;20484;-83
2021/08/13 09:53:10;;;;;;;1999.90;999.90;;;28.00;99.90;;;;;;5055447;28;20921;-83
2021/08/13 09:55:37;;;;;;;1999.90;999.90;;;28.00;99.90;;;;;;5055720;28;20569;-83
2021/08/13 09:58:04;;;;;;;1999.90;999.90;;;28.00;99.90;;;;;;5055534;28;21013;-83
2021/08/13 10:00:32;;;;;;;1999.90;999.90;;;28.00;99.90;;;;;;5055411;28;20455;-83
2021/08/13 10:03:10;;;;;;;1999.90;999.90;;;28.00;99.90;;;;;;5055785;28;20458;-83
2021/08/13 10:05:37;;;;;;;1999.90;999.90;;;28.00;99.90;;;;;;5055523;28;20934;-83
2021/08/13 10:08:05;;;;;;;1999.90;999.90;;;28.00;99.90;;;;;;5055039;28;20480;-83
2021/08/13 10:10:35;;;;;;;1999.90;999.90;;;27.90;99.90;;;;;;5055175;28;20483;-83
2021/08/13 10:13:03;;;;;;;1999.90;999.90;;;27.90;99.90;;;;;;5055132;28;20480;-83
2021/08/13 10:15:31;;;;;;;1999.90;999.90;;;27.90;99.90;;;;;;5044601;28;20473;-83
2021/08/13 10:17:59;;;;;;;1999.90;999.90;;;27.90;99.90;;;;;;5035138;28;21054;-83
2021/08/13 10:20:29;;;;;;;1999.90;999.90;;;28.00;99.90;;;;;;5035816;28;20860;-83
2021/08/13 10:22:56;;;;;;;1999.90;999.90;;;28.00;99.90;;;;;;5035238;28;20434;-83
2021/08/13 10:25:22;;;;;;;1999.90;999.90;;;28.00;99.90;;;;;;5035449;28;20570;-83
2021/08/13 10:27:50;;;;;;;1999.90;999.90;;;28.00;99.90;;;;;;5035255;28;20529;-83
2021/08/13 10:30:17;;;;;;;1999.90;999.90;;;28.10;99.90;;;;;;5034838;28;20480;-83
2021/08/13 10:32:45;;;;;;;1999.90;999.90;;;28.20;99.90;;;;;;5034783;28;20441;-83
2021/08/13 10:35:12;;;;;;;1999.90;999.90;;;28.30;99.90;;;;;;5034456;28;20579;-83
2021/08/13 10:37:42;;;;;;;1999.90;999.90;;;28.30;99.90;;;;;;5034433;28;20528;-83
2021/08/13 10:40:11;;;;;;;1999.90;999.90;;;28.30;99.90;;;;;;5034845;28;20449;-83
2021/08/13 10:42:41;;;;;;;1999.90;999.90;;;28.30;99.90;;;;;;5034494;28;20541;-83
2021/08/13 10:45:10;;;;;;;1999.90;999.90;;;28.30;99.90;;;;;;5034790;28;20519;-83
2021/08/13 10:47:41;;;;;;;1999.90;999.90;;;28.50;99.90;;;;;;5034671;28;20496;-83
2021/08/13 10:50:09;;;;;;;1999.90;999.90;;;28.60;99.90;;;;;;5034762;28;20445;-83
2021/08/13 10:52:37;;;;;;;1999.90;999.90;;;28.70;99.90;;;;;;5034476;28;20924;-83
2021/08/13 10:55:06;;;;;;;1999.90;999.90;;;28.70;99.90;;;;;;5034929;28;20528;-83
2021/08/13 10:57:53;;;;;;;1999.90;999.90;;;28.70;99.90;;;;;;5034856;28;20481;-83
2021/08/13 11:00:20;;;;;;;1999.90;999.90;;;28.80;99.90;;;;;;5033290;28;20816;-83
2021/08/13 11:03:16;;;;;;;1999.90;999.90;;;28.90;99.90;;;;;;5034137;28;20449;-83
2021/08/13 11:05:54;;;;;;;1999.90;999.90;;;29.10;99.90;;;;;;5034250;28;20477;-83
2021/08/13 11:08:20;;;;;;;1999.90;999.90;;;29.20;99.90;;;;;;5034051;28;20453;-83
2021/08/13 11:11:00;;;;;;;1283.97;626.70;;;29.30;99.90;;;;;;5033745;28;20441;-83
2021/08/13 11:13:35;;;;;;;1999.90;999.90;;;29.40;99.90;;;;;;5034216;28;20461;-83
2021/08/13 11:16:01;;;;;;;1999.90;999.90;;;29.50;99.90;;;;;;5049418;28;20539;-83
2021/08/13 11:18:34;;;;;;;1999.90;999.90;;;29.70;99.90;;;;;;5054089;28;20480;-83
2021/08/13 11:21:01;;;;;;;1999.90;999.90;;;29.80;99.90;;;;;;5053512;28;20455;-83
2021/08/13 11:23:29;;;;;;;1999.90;999.90;;;29.80;99.90;;;;;;5054348;28;20849;-83
2021/08/13 11:25:55;;;;;;;1999.90;999.90;;;29.80;99.90;;;;;;5053858;28;20506;-83
2021/08/13 11:28:24;;;;;;;1999.90;999.90;;;29.80;99.90;;;;;;5054228;28;20487;-83
2021/08/13 11:30:53;;;;;;;1999.90;999.90;;;29.80;99.90;;;;;;5053576;28;20448;-83
2021/08/13 11:33:41;;;;;;;1999.90;999.90;;;29.90;99.90;;;;;;5053275;28;20966;-83
2021/08/13 11:36:08;;;;;;;1999.90;999.90;;;30.00;99.90;;;;;;5053673;28;20506;-83
2021/08/13 11:38:57;;;;;;;1898.53;999.90;;;30.00;99.90;;;;;;5053525;28;20472;-83
2021/08/13 11:41:25;;;;;;;1683.80;999.90;;;30.20;99.90;;;;;;5053196;28;20990;-83
2021/08/13 11:43:55;;;;;;;1871.53;999.90;;;30.30;99.90;;;;;;5053060;28;20455;-83
2021/08/13 11:46:26;;;;;;;1868.40;999.90;;;30.50;99.90;;;;;;5053618;28;20479;-83
2021/08/13 11:48:56;;;;;;;1804.63;999.90;;;30.50;99.90;;;;;;5053909;28;20476;-83
2021/08/13 11:51:24;;;;;;;1729.77;999.90;;;30.40;99.90;;;;;;5053717;28;20440;-83
2021/08/13 11:53:51;;;;;;;1674.17;999.90;;;30.40;99.90;;;;;;5053373;28;20449;-83
2021/08/13 11:56:25;;;;;;;1621.17;999.90;;;30.30;99.90;;;;;;5053798;28;20480;-83
2021/08/13 11:59:00;;;;;;;1783.03;999.90;;;30.30;99.90;;;;;;5053130;28;20501;-83
2021/08/13 12:01:27;;;;;;;1742.17;999.90;;;30.30;99.90;;;;;;5053430;28;20482;-83
2021/08/13 12:03:54;;;;;;;1674.33;999.90;;;30.20;99.90;;;;;;5053001;28;20526;-83
2021/08/13 12:06:21;;;;;;;1747.00;999.90;;;30.30;99.90;;;;;;5053346;28;20878;-83
2021/08/13 12:08:49;;;;;;;1681.60;999.90;;;30.20;99.90;;;;;;5052842;28;20472;-83
2021/08/13 12:11:23;;;;;;;1391.07;999.90;;;30.30;99.90;;;;;;5052795;28;20854;-83
2021/08/13 12:13:50;;;;;;;1435.67;999.90;;;30.30;99.90;;;;;;5053601;28;20486;-83
2021/08/13 12:16:19;;;;;;;1555.87;999.90;;;30.50;99.90;;;;;;5036056;28;20936;-83
2021/08/13 12:18:46;;;;;;;1492.43;999.90;;;30.60;99.90;;;;;;5032843;28;20445;-83
2021/08/13 12:21:14;;;;;;;1466.13;999.90;;;30.70;99.90;;;;;;5033627;28;20449;-83
2021/08/13 12:23:52;;;;;;;1521.20;999.90;;;30.80;99.90;;;;;;5033219;28;20940;-83
2021/08/13 12:26:28;;;;;;;1308.03;999.90;;;30.90;99.90;;;;;;5033047;28;20924;-83
2021/08/13 12:28:55;;;;;;;1167.20;999.90;;;31.10;99.90;;;;;;5033199;28;20483;-83